sensor_id;sensor_type;location;lat;lon;timestamp;temperature;humidity
47382;DHT22;33128;51.580;5.170;2023-04-20T00:00:21;9.00;66.70
47382;DHT22;33128;51.580;5.170;2023-04-20T00:02:47;9.20;71.20
47382;DHT22;33128;51.580;5.170;2023-04-20T00:05:13;9.30;69.60
47382;DHT22;33128;51.580;5.170;2023-04-20T00:07:38;9.30;67.60
47382;DHT22;33128;51.580;5.170;2023-04-20T00:10:06;9.30;70.00
47382;DHT22;33128;51.580;5.170;2023-04-20T00:12:32;9.10;67.20
47382;DHT22;33128;51.580;5.170;2023-04-20T00:14:58;9.10;69.40
47382;DHT22;33128;51.580;5.170;2023-04-20T00:17:24;8.70;68.60
47382;DHT22;33128;51.580;5.170;2023-04-20T00:19:51;8.80;70.30
47382;DHT22;33128;51.580;5.170;2023-04-20T00:22:16;8.40;69.00
47382;DHT22;33128;51.580;5.170;2023-04-20T00:24:42;8.30;69.70
47382;DHT22;33128;51.580;5.170;2023-04-20T00:27:07;8.50;71.60
47382;DHT22;33128;51.580;5.170;2023-04-20T00:29:33;8.40;70.30
47382;DHT22;33128;51.580;5.170;2023-04-20T00:31:58;8.40;70.10
47382;DHT22;33128;51.580;5.170;2023-04-20T00:34:24;8.40;70.90
47382;DHT22;33128;51.580;5.170;2023-04-20T00:36:50;8.20;70.70
47382;DHT22;33128;51.580;5.170;2023-04-20T00:39:15;8.20;71.70
47382;DHT22;33128;51.580;5.170;2023-04-20T00:41:41;7.90;71.30
47382;DHT22;33128;51.580;5.170;2023-04-20T00:44:06;7.90;71.00
47382;DHT22;33128;51.580;5.170;2023-04-20T00:46:36;7.70;71.70
47382;DHT22;33128;51.580;5.170;2023-04-20T00:49:01;7.70;71.50
47382;DHT22;33128;51.580;5.170;2023-04-20T00:51:28;7.60;72.30
47382;DHT22;33128;51.580;5.170;2023-04-20T00:53:53;7.50;73.30
47382;DHT22;33128;51.580;5.170;2023-04-20T00:56:19;7.60;73.50
47382;DHT22;33128;51.580;5.170;2023-04-20T00:58:47;7.70;71.80
47382;DHT22;33128;51.580;5.170;2023-04-20T01:01:13;7.90;72.80
47382;DHT22;33128;51.580;5.170;2023-04-20T01:03:43;7.80;72.90
47382;DHT22;33128;51.580;5.170;2023-04-20T01:06:09;7.60;72.40
47382;DHT22;33128;51.580;5.170;2023-04-20T01:08:47;7.40;73.90
47382;DHT22;33128;51.580;5.170;2023-04-20T01:11:13;7.50;73.30
47382;DHT22;33128;51.580;5.170;2023-04-20T01:13:39;7.60;73.10
47382;DHT22;33128;51.580;5.170;2023-04-20T01:16:04;8.10;74.80
47382;DHT22;33128;51.580;5.170;2023-04-20T01:18:49;7.90;71.90
47382;DHT22;33128;51.580;5.170;2023-04-20T01:21:17;7.90;73.30
47382;DHT22;33128;51.580;5.170;2023-04-20T01:23:46;7.90;73.10
47382;DHT22;33128;51.580;5.170;2023-04-20T01:26:14;7.70;72.90
47382;DHT22;33128;51.580;5.170;2023-04-20T01:28:40;7.60;73.30
47382;DHT22;33128;51.580;5.170;2023-04-20T01:31:07;7.70;73.90
47382;DHT22;33128;51.580;5.170;2023-04-20T01:33:33;7.70;74.60
47382;DHT22;33128;51.580;5.170;2023-04-20T01:35:58;7.50;74.00
47382;DHT22;33128;51.580;5.170;2023-04-20T01:38:25;7.50;74.10
47382;DHT22;33128;51.580;5.170;2023-04-20T01:40:52;7.60;74.20
47382;DHT22;33128;51.580;5.170;2023-04-20T01:43:20;7.60;74.30
47382;DHT22;33128;51.580;5.170;2023-04-20T01:45:46;7.70;74.40
47382;DHT22;33128;51.580;5.170;2023-04-20T01:48:11;7.60;75.40
47382;DHT22;33128;51.580;5.170;2023-04-20T01:50:37;7.60;74.70
47382;DHT22;33128;51.580;5.170;2023-04-20T01:53:02;7.60;76.30
47382;DHT22;33128;51.580;5.170;2023-04-20T01:55:28;7.40;74.90
47382;DHT22;33128;51.580;5.170;2023-04-20T01:57:54;7.40;76.20
47382;DHT22;33128;51.580;5.170;2023-04-20T02:00:19;7.60;75.50
47382;DHT22;33128;51.580;5.170;2023-04-20T02:02:45;7.30;75.10
47382;DHT22;33128;51.580;5.170;2023-04-20T02:05:11;7.50;75.90
47382;DHT22;33128;51.580;5.170;2023-04-20T02:07:36;8.10;76.80
47382;DHT22;33128;51.580;5.170;2023-04-20T02:10:03;7.60;75.00
47382;DHT22;33128;51.580;5.170;2023-04-20T02:12:29;7.40;76.00
47382;DHT22;33128;51.580;5.170;2023-04-20T02:14:54;7.40;76.30
47382;DHT22;33128;51.580;5.170;2023-04-20T02:17:20;7.20;78.40
47382;DHT22;33128;51.580;5.170;2023-04-20T02:19:46;6.80;77.50
47382;DHT22;33128;51.580;5.170;2023-04-20T02:22:11;6.60;78.00
47382;DHT22;33128;51.580;5.170;2023-04-20T02:24:37;6.60;79.00
47382;DHT22;33128;51.580;5.170;2023-04-20T02:27:03;6.70;78.40
47382;DHT22;33128;51.580;5.170;2023-04-20T02:29:28;6.70;79.40
47382;DHT22;33128;51.580;5.170;2023-04-20T02:31:54;6.60;78.80
47382;DHT22;33128;51.580;5.170;2023-04-20T02:34:20;6.60;79.30
47382;DHT22;33128;51.580;5.170;2023-04-20T02:36:46;6.70;80.30
47382;DHT22;33128;51.580;5.170;2023-04-20T02:39:13;6.70;80.00
47382;DHT22;33128;51.580;5.170;2023-04-20T02:41:38;7.10;81.10
47382;DHT22;33128;51.580;5.170;2023-04-20T02:44:04;7.20;81.00
47382;DHT22;33128;51.580;5.170;2023-04-20T02:46:30;7.60;82.00
47382;DHT22;33128;51.580;5.170;2023-04-20T02:48:55;7.50;81.00
47382;DHT22;33128;51.580;5.170;2023-04-20T02:51:21;7.60;80.60
47382;DHT22;33128;51.580;5.170;2023-04-20T02:53:46;7.50;81.30
47382;DHT22;33128;51.580;5.170;2023-04-20T02:56:12;7.20;81.70
47382;DHT22;33128;51.580;5.170;2023-04-20T02:58:38;7.50;82.20
47382;DHT22;33128;51.580;5.170;2023-04-20T03:01:04;8.10;84.20
47382;DHT22;33128;51.580;5.170;2023-04-20T03:03:30;8.20;82.20
47382;DHT22;33128;51.580;5.170;2023-04-20T03:05:56;7.60;84.90
47382;DHT22;33128;51.580;5.170;2023-04-20T03:08:22;8.00;82.30
47382;DHT22;33128;51.580;5.170;2023-04-20T03:10:47;7.80;84.00
47382;DHT22;33128;51.580;5.170;2023-04-20T03:13:13;7.60;85.00
47382;DHT22;33128;51.580;5.170;2023-04-20T03:15:39;7.40;84.60
47382;DHT22;33128;51.580;5.170;2023-04-20T03:18:05;7.30;86.00
47382;DHT22;33128;51.580;5.170;2023-04-20T03:20:30;7.60;87.00
47382;DHT22;33128;51.580;5.170;2023-04-20T03:22:56;7.30;88.10
47382;DHT22;33128;51.580;5.170;2023-04-20T03:25:22;7.20;88.10
47382;DHT22;33128;51.580;5.170;2023-04-20T03:27:48;7.10;90.00
47382;DHT22;33128;51.580;5.170;2023-04-20T03:30:14;7.40;89.30
47382;DHT22;33128;51.580;5.170;2023-04-20T03:32:40;7.60;89.70
47382;DHT22;33128;51.580;5.170;2023-04-20T03:35:07;7.50;90.30
47382;DHT22;33128;51.580;5.170;2023-04-20T03:37:35;8.30;90.70
47382;DHT22;33128;51.580;5.170;2023-04-20T03:40:01;7.90;90.30
47382;DHT22;33128;51.580;5.170;2023-04-20T03:42:26;8.00;90.40
47382;DHT22;33128;51.580;5.170;2023-04-20T03:44:52;8.20;90.60
47382;DHT22;33128;51.580;5.170;2023-04-20T03:47:18;8.10;90.60
47382;DHT22;33128;51.580;5.170;2023-04-20T03:49:49;8.30;90.20
47382;DHT22;33128;51.580;5.170;2023-04-20T03:52:15;8.20;90.80
47382;DHT22;33128;51.580;5.170;2023-04-20T03:54:40;8.30;90.40
47382;DHT22;33128;51.580;5.170;2023-04-20T03:57:06;8.30;91.00
47382;DHT22;33128;51.580;5.170;2023-04-20T03:59:31;8.60;91.20
47382;DHT22;33128;51.580;5.170;2023-04-20T04:01:58;8.40;90.60
47382;DHT22;33128;51.580;5.170;2023-04-20T04:04:24;8.70;91.40
47382;DHT22;33128;51.580;5.170;2023-04-20T04:06:50;8.60;90.70
47382;DHT22;33128;51.580;5.170;2023-04-20T04:09:16;8.50;91.40
47382;DHT22;33128;51.580;5.170;2023-04-20T04:11:41;8.80;92.20
47382;DHT22;33128;51.580;5.170;2023-04-20T04:14:07;8.90;92.70
47382;DHT22;33128;51.580;5.170;2023-04-20T04:16:32;9.00;91.60
47382;DHT22;33128;51.580;5.170;2023-04-20T04:18:58;9.80;92.10
47382;DHT22;33128;51.580;5.170;2023-04-20T04:21:24;9.30;90.40
47382;DHT22;33128;51.580;5.170;2023-04-20T04:23:49;9.20;91.50
47382;DHT22;33128;51.580;5.170;2023-04-20T04:26:15;9.40;92.20
47382;DHT22;33128;51.580;5.170;2023-04-20T04:28:42;9.30;92.60
47382;DHT22;33128;51.580;5.170;2023-04-20T04:31:10;9.90;91.30
47382;DHT22;33128;51.580;5.170;2023-04-20T04:33:41;9.30;91.90
47382;DHT22;33128;51.580;5.170;2023-04-20T04:36:07;8.80;91.70
47382;DHT22;33128;51.580;5.170;2023-04-20T04:38:33;8.70;92.30
47382;DHT22;33128;51.580;5.170;2023-04-20T04:40:58;9.20;93.00
47382;DHT22;33128;51.580;5.170;2023-04-20T04:43:27;8.90;92.40
47382;DHT22;33128;51.580;5.170;2023-04-20T04:45:53;8.80;94.10
47382;DHT22;33128;51.580;5.170;2023-04-20T04:48:21;9.00;92.40
47382;DHT22;33128;51.580;5.170;2023-04-20T04:50:47;9.30;92.50
47382;DHT22;33128;51.580;5.170;2023-04-20T04:53:13;9.30;92.50
47382;DHT22;33128;51.580;5.170;2023-04-20T04:55:38;9.40;92.90
47382;DHT22;33128;51.580;5.170;2023-04-20T04:58:04;9.40;92.40
47382;DHT22;33128;51.580;5.170;2023-04-20T05:00:30;10.40;90.50
47382;DHT22;33128;51.580;5.170;2023-04-20T05:02:55;9.70;92.40
47382;DHT22;33128;51.580;5.170;2023-04-20T05:05:21;10.30;92.30
47382;DHT22;33128;51.580;5.170;2023-04-20T05:07:47;9.60;92.70
47382;DHT22;33128;51.580;5.170;2023-04-20T05:10:13;9.40;92.50
47382;DHT22;33128;51.580;5.170;2023-04-20T05:12:38;9.20;93.00
47382;DHT22;33128;51.580;5.170;2023-04-20T05:15:05;9.10;93.20
47382;DHT22;33128;51.580;5.170;2023-04-20T05:17:31;9.10;93.10
47382;DHT22;33128;51.580;5.170;2023-04-20T05:19:56;9.10;93.70
47382;DHT22;33128;51.580;5.170;2023-04-20T05:22:22;8.90;93.70
47382;DHT22;33128;51.580;5.170;2023-04-20T05:24:47;8.90;93.70
47382;DHT22;33128;51.580;5.170;2023-04-20T05:27:13;8.80;93.60
47382;DHT22;33128;51.580;5.170;2023-04-20T05:29:38;9.20;93.80
47382;DHT22;33128;51.580;5.170;2023-04-20T05:32:04;9.30;94.10
47382;DHT22;33128;51.580;5.170;2023-04-20T05:34:30;9.40;93.30
47382;DHT22;33128;51.580;5.170;2023-04-20T05:36:57;9.80;93.30
47382;DHT22;33128;51.580;5.170;2023-04-20T05:39:23;9.30;93.60
47382;DHT22;33128;51.580;5.170;2023-04-20T05:41:49;9.70;94.60
47382;DHT22;33128;51.580;5.170;2023-04-20T05:44:14;9.70;93.60
47382;DHT22;33128;51.580;5.170;2023-04-20T05:46:40;10.00;93.70
47382;DHT22;33128;51.580;5.170;2023-04-20T05:49:05;9.60;93.20
47382;DHT22;33128;51.580;5.170;2023-04-20T05:51:31;9.70;93.20
47382;DHT22;33128;51.580;5.170;2023-04-20T05:54:01;9.40;93.30
47382;DHT22;33128;51.580;5.170;2023-04-20T05:56:28;9.70;93.00
47382;DHT22;33128;51.580;5.170;2023-04-20T05:58:55;9.60;93.20
47382;DHT22;33128;51.580;5.170;2023-04-20T06:01:20;9.70;93.10
47382;DHT22;33128;51.580;5.170;2023-04-20T06:03:46;9.80;93.80
47382;DHT22;33128;51.580;5.170;2023-04-20T06:06:14;9.50;93.40
47382;DHT22;33128;51.580;5.170;2023-04-20T06:08:39;10.10;93.50
47382;DHT22;33128;51.580;5.170;2023-04-20T06:11:05;10.30;93.00
47382;DHT22;33128;51.580;5.170;2023-04-20T06:13:31;10.20;93.30
47382;DHT22;33128;51.580;5.170;2023-04-20T06:15:57;10.10;93.50
47382;DHT22;33128;51.580;5.170;2023-04-20T06:18:22;10.00;93.20
47382;DHT22;33128;51.580;5.170;2023-04-20T06:20:48;9.80;93.50
47382;DHT22;33128;51.580;5.170;2023-04-20T06:23:13;9.80;93.70
47382;DHT22;33128;51.580;5.170;2023-04-20T06:25:39;10.10;93.80
47382;DHT22;33128;51.580;5.170;2023-04-20T06:28:06;10.30;93.40
47382;DHT22;33128;51.580;5.170;2023-04-20T06:30:32;10.00;94.00
47382;DHT22;33128;51.580;5.170;2023-04-20T06:32:59;10.30;93.30
47382;DHT22;33128;51.580;5.170;2023-04-20T06:35:25;10.00;93.10
47382;DHT22;33128;51.580;5.170;2023-04-20T06:37:51;10.30;92.80
47382;DHT22;33128;51.580;5.170;2023-04-20T06:40:17;9.90;93.80
47382;DHT22;33128;51.580;5.170;2023-04-20T06:42:43;10.00;93.50
47382;DHT22;33128;51.580;5.170;2023-04-20T06:45:10;9.70;94.20
47382;DHT22;33128;51.580;5.170;2023-04-20T06:47:36;10.20;93.20
47382;DHT22;33128;51.580;5.170;2023-04-20T06:50:03;10.10;93.80
47382;DHT22;33128;51.580;5.170;2023-04-20T06:52:31;10.40;94.80
47382;DHT22;33128;51.580;5.170;2023-04-20T06:54:58;10.50;93.10
47382;DHT22;33128;51.580;5.170;2023-04-20T06:57:24;10.50;93.30
47382;DHT22;33128;51.580;5.170;2023-04-20T06:59:50;10.90;93.90
47382;DHT22;33128;51.580;5.170;2023-04-20T07:02:15;11.00;93.20
47382;DHT22;33128;51.580;5.170;2023-04-20T07:04:41;11.30;93.20
47382;DHT22;33128;51.580;5.170;2023-04-20T07:07:07;11.10;93.20
47382;DHT22;33128;51.580;5.170;2023-04-20T07:09:32;11.40;93.00
47382;DHT22;33128;51.580;5.170;2023-04-20T07:11:58;11.50;92.50
47382;DHT22;33128;51.580;5.170;2023-04-20T07:14:24;11.60;91.90
47382;DHT22;33128;51.580;5.170;2023-04-20T07:16:53;11.20;92.60
47382;DHT22;33128;51.580;5.170;2023-04-20T07:19:19;11.20;93.40
47382;DHT22;33128;51.580;5.170;2023-04-20T07:21:44;11.20;93.10
47382;DHT22;33128;51.580;5.170;2023-04-20T07:24:10;11.10;93.70
47382;DHT22;33128;51.580;5.170;2023-04-20T07:26:36;11.20;93.10
47382;DHT22;33128;51.580;5.170;2023-04-20T07:29:02;11.10;93.50
47382;DHT22;33128;51.580;5.170;2023-04-20T07:31:27;11.20;93.50
47382;DHT22;33128;51.580;5.170;2023-04-20T07:33:55;11.20;93.00
47382;DHT22;33128;51.580;5.170;2023-04-20T07:36:21;11.40;93.20
47382;DHT22;33128;51.580;5.170;2023-04-20T07:38:47;10.90;93.30
47382;DHT22;33128;51.580;5.170;2023-04-20T07:41:14;11.10;93.70
47382;DHT22;33128;51.580;5.170;2023-04-20T07:43:39;11.20;93.60
47382;DHT22;33128;51.580;5.170;2023-04-20T07:46:05;11.10;92.90
47382;DHT22;33128;51.580;5.170;2023-04-20T07:48:32;10.70;94.00
47382;DHT22;33128;51.580;5.170;2023-04-20T07:50:58;10.60;93.90
47382;DHT22;33128;51.580;5.170;2023-04-20T07:53:24;10.70;94.50
47382;DHT22;33128;51.580;5.170;2023-04-20T07:55:52;11.10;93.60
47382;DHT22;33128;51.580;5.170;2023-04-20T07:58:18;10.70;93.40
47382;DHT22;33128;51.580;5.170;2023-04-20T08:00:45;10.80;94.00
47382;DHT22;33128;51.580;5.170;2023-04-20T08:03:11;10.90;93.50
47382;DHT22;33128;51.580;5.170;2023-04-20T08:05:37;10.90;93.90
47382;DHT22;33128;51.580;5.170;2023-04-20T08:08:03;11.20;93.80
47382;DHT22;33128;51.580;5.170;2023-04-20T08:10:29;11.40;93.40
47382;DHT22;33128;51.580;5.170;2023-04-20T08:12:54;11.70;93.40
47382;DHT22;33128;51.580;5.170;2023-04-20T08:15:20;12.10;93.10
47382;DHT22;33128;51.580;5.170;2023-04-20T08:17:46;12.30;92.50
47382;DHT22;33128;51.580;5.170;2023-04-20T08:20:11;12.40;92.60
47382;DHT22;33128;51.580;5.170;2023-04-20T08:22:38;12.60;92.10
47382;DHT22;33128;51.580;5.170;2023-04-20T08:25:04;12.60;92.00
47382;DHT22;33128;51.580;5.170;2023-04-20T08:27:29;12.50;91.90
47382;DHT22;33128;51.580;5.170;2023-04-20T08:29:55;12.40;91.80
47382;DHT22;33128;51.580;5.170;2023-04-20T08:32:24;12.30;91.80
47382;DHT22;33128;51.580;5.170;2023-04-20T08:34:51;12.20;92.20
47382;DHT22;33128;51.580;5.170;2023-04-20T08:37:17;11.90;92.20
47382;DHT22;33128;51.580;5.170;2023-04-20T08:39:43;12.70;93.70
47382;DHT22;33128;51.580;5.170;2023-04-20T08:42:09;12.90;93.30
47382;DHT22;33128;51.580;5.170;2023-04-20T08:44:34;13.80;93.00
47382;DHT22;33128;51.580;5.170;2023-04-20T08:47:00;14.10;91.70
47382;DHT22;33128;51.580;5.170;2023-04-20T08:49:27;14.30;92.10
47382;DHT22;33128;51.580;5.170;2023-04-20T08:51:59;14.30;91.30
47382;DHT22;33128;51.580;5.170;2023-04-20T08:54:25;14.30;91.60
47382;DHT22;33128;51.580;5.170;2023-04-20T08:56:51;14.40;91.30
47382;DHT22;33128;51.580;5.170;2023-04-20T08:59:17;14.30;90.50
47382;DHT22;33128;51.580;5.170;2023-04-20T09:01:43;14.30;90.70
47382;DHT22;33128;51.580;5.170;2023-04-20T09:04:22;14.20;90.80
47382;DHT22;33128;51.580;5.170;2023-04-20T09:06:53;14.20;90.90
47382;DHT22;33128;51.580;5.170;2023-04-20T09:09:20;14.30;90.70
47382;DHT22;33128;51.580;5.170;2023-04-20T09:11:46;14.20;91.10
47382;DHT22;33128;51.580;5.170;2023-04-20T09:14:14;14.40;90.80
47382;DHT22;33128;51.580;5.170;2023-04-20T09:16:55;14.40;90.70
47382;DHT22;33128;51.580;5.170;2023-04-20T09:19:30;14.70;91.20
47382;DHT22;33128;51.580;5.170;2023-04-20T09:21:57;14.90;91.20
47382;DHT22;33128;51.580;5.170;2023-04-20T09:24:29;14.80;90.60
47382;DHT22;33128;51.580;5.170;2023-04-20T09:26:56;14.80;91.00
47382;DHT22;33128;51.580;5.170;2023-04-20T09:29:23;14.80;92.10
47382;DHT22;33128;51.580;5.170;2023-04-20T09:31:50;14.80;90.90
47382;DHT22;33128;51.580;5.170;2023-04-20T09:34:16;14.60;90.90
47382;DHT22;33128;51.580;5.170;2023-04-20T09:36:46;14.70;91.40
47382;DHT22;33128;51.580;5.170;2023-04-20T09:39:20;14.60;91.10
47382;DHT22;33128;51.580;5.170;2023-04-20T09:41:47;14.30;91.10
47382;DHT22;33128;51.580;5.170;2023-04-20T09:44:14;14.40;91.20
47382;DHT22;33128;51.580;5.170;2023-04-20T09:46:41;14.50;90.60
47382;DHT22;33128;51.580;5.170;2023-04-20T09:49:11;14.50;90.00
47382;DHT22;33128;51.580;5.170;2023-04-20T09:51:42;14.40;90.20
47382;DHT22;33128;51.580;5.170;2023-04-20T09:54:10;14.20;90.20
47382;DHT22;33128;51.580;5.170;2023-04-20T09:56:37;14.10;90.40
47382;DHT22;33128;51.580;5.170;2023-04-20T09:59:03;14.00;90.30
47382;DHT22;33128;51.580;5.170;2023-04-20T10:01:30;14.00;91.30
47382;DHT22;33128;51.580;5.170;2023-04-20T10:03:59;13.90;92.10
47382;DHT22;33128;51.580;5.170;2023-04-20T10:06:30;13.70;91.10
47382;DHT22;33128;51.580;5.170;2023-04-20T10:09:00;13.70;92.40
47382;DHT22;33128;51.580;5.170;2023-04-20T10:11:35;13.60;91.20
47382;DHT22;33128;51.580;5.170;2023-04-20T10:16:43;13.30;91.60
47382;DHT22;33128;51.580;5.170;2023-04-20T10:19:09;13.40;91.40
47382;DHT22;33128;51.580;5.170;2023-04-20T10:21:45;13.50;92.00
47382;DHT22;33128;51.580;5.170;2023-04-20T10:24:11;13.40;91.70
47382;DHT22;33128;51.580;5.170;2023-04-20T10:26:38;13.40;91.60
47382;DHT22;33128;51.580;5.170;2023-04-20T10:29:04;13.50;91.30
47382;DHT22;33128;51.580;5.170;2023-04-20T10:31:35;13.40;91.80
47382;DHT22;33128;51.580;5.170;2023-04-20T10:34:01;13.50;92.30
47382;DHT22;33128;51.580;5.170;2023-04-20T10:36:34;13.70;91.60
47382;DHT22;33128;51.580;5.170;2023-04-20T10:39:19;13.70;92.00
47382;DHT22;33128;51.580;5.170;2023-04-20T10:41:55;13.40;91.70
47382;DHT22;33128;51.580;5.170;2023-04-20T10:44:23;13.90;92.90
47382;DHT22;33128;51.580;5.170;2023-04-20T10:46:50;14.10;91.90
47382;DHT22;33128;51.580;5.170;2023-04-20T10:49:16;14.20;92.20
47382;DHT22;33128;51.580;5.170;2023-04-20T10:51:49;13.90;91.50
47382;DHT22;33128;51.580;5.170;2023-04-20T10:54:15;14.40;92.70
47382;DHT22;33128;51.580;5.170;2023-04-20T10:56:51;14.40;91.20
47382;DHT22;33128;51.580;5.170;2023-04-20T10:59:19;14.40;91.30
47382;DHT22;33128;51.580;5.170;2023-04-20T11:01:45;14.40;91.30
47382;DHT22;33128;51.580;5.170;2023-04-20T11:04:12;14.60;91.80
47382;DHT22;33128;51.580;5.170;2023-04-20T11:06:42;14.60;91.40
47382;DHT22;33128;51.580;5.170;2023-04-20T11:09:19;15.10;91.30
47382;DHT22;33128;51.580;5.170;2023-04-20T11:11:45;15.00;90.80
47382;DHT22;33128;51.580;5.170;2023-04-20T11:14:11;15.30;90.20
47382;DHT22;33128;51.580;5.170;2023-04-20T11:16:38;15.60;89.50
47382;DHT22;33128;51.580;5.170;2023-04-20T11:19:04;16.40;94.40
47382;DHT22;33128;51.580;5.170;2023-04-20T11:21:38;16.10;90.00
47382;DHT22;33128;51.580;5.170;2023-04-20T11:24:04;16.20;90.10
47382;DHT22;33128;51.580;5.170;2023-04-20T11:26:37;16.00;88.20
47382;DHT22;33128;51.580;5.170;2023-04-20T11:29:04;15.90;89.90
47382;DHT22;33128;51.580;5.170;2023-04-20T11:31:30;16.20;88.90
47382;DHT22;33128;51.580;5.170;2023-04-20T11:33:56;16.80;90.30
47382;DHT22;33128;51.580;5.170;2023-04-20T11:36:23;16.80;90.00
47382;DHT22;33128;51.580;5.170;2023-04-20T11:38:49;16.80;90.30
47382;DHT22;33128;51.580;5.170;2023-04-20T11:41:15;17.20;88.20
47382;DHT22;33128;51.580;5.170;2023-04-20T11:43:41;16.80;86.60
47382;DHT22;33128;51.580;5.170;2023-04-20T11:46:20;16.70;89.20
47382;DHT22;33128;51.580;5.170;2023-04-20T11:48:46;16.60;88.80
47382;DHT22;33128;51.580;5.170;2023-04-20T11:51:13;16.60;86.60
47382;DHT22;33128;51.580;5.170;2023-04-20T11:53:39;16.60;89.90
47382;DHT22;33128;51.580;5.170;2023-04-20T11:56:05;16.50;88.90
47382;DHT22;33128;51.580;5.170;2023-04-20T11:58:31;16.00;86.40
47382;DHT22;33128;51.580;5.170;2023-04-20T12:00:56;15.60;88.80
47382;DHT22;33128;51.580;5.170;2023-04-20T12:03:22;15.50;90.20
47382;DHT22;33128;51.580;5.170;2023-04-20T12:05:47;15.50;89.50
47382;DHT22;33128;51.580;5.170;2023-04-20T12:08:13;15.50;89.90
47382;DHT22;33128;51.580;5.170;2023-04-20T12:10:41;15.50;87.80
47382;DHT22;33128;51.580;5.170;2023-04-20T12:13:07;15.50;88.40
47382;DHT22;33128;51.580;5.170;2023-04-20T12:15:32;15.70;89.30
47382;DHT22;33128;51.580;5.170;2023-04-20T12:17:58;15.40;88.50
47382;DHT22;33128;51.580;5.170;2023-04-20T12:20:24;15.40;90.20
47382;DHT22;33128;51.580;5.170;2023-04-20T12:22:49;15.30;90.80
47382;DHT22;33128;51.580;5.170;2023-04-20T12:25:15;15.10;91.60
47382;DHT22;33128;51.580;5.170;2023-04-20T12:27:40;15.10;90.90
47382;DHT22;33128;51.580;5.170;2023-04-20T12:30:07;15.10;91.20
47382;DHT22;33128;51.580;5.170;2023-04-20T12:32:33;14.90;91.00
47382;DHT22;33128;51.580;5.170;2023-04-20T12:35:02;14.80;91.00
47382;DHT22;33128;51.580;5.170;2023-04-20T12:37:37;14.60;91.10
47382;DHT22;33128;51.580;5.170;2023-04-20T12:40:02;14.50;91.70
47382;DHT22;33128;51.580;5.170;2023-04-20T12:42:30;14.30;91.80
47382;DHT22;33128;51.580;5.170;2023-04-20T12:44:56;14.50;91.60
47382;DHT22;33128;51.580;5.170;2023-04-20T12:47:21;14.30;91.80
47382;DHT22;33128;51.580;5.170;2023-04-20T12:49:48;14.50;91.50
47382;DHT22;33128;51.580;5.170;2023-04-20T12:52:14;14.60;91.60
47382;DHT22;33128;51.580;5.170;2023-04-20T12:54:39;14.60;91.60
47382;DHT22;33128;51.580;5.170;2023-04-20T12:57:05;14.70;92.10
47382;DHT22;33128;51.580;5.170;2023-04-20T12:59:30;14.80;91.70
47382;DHT22;33128;51.580;5.170;2023-04-20T13:02:05;14.90;92.50
47382;DHT22;33128;51.580;5.170;2023-04-20T13:04:31;15.00;92.20
47382;DHT22;33128;51.580;5.170;2023-04-20T13:06:56;14.80;92.30
47382;DHT22;33128;51.580;5.170;2023-04-20T13:09:22;15.00;92.60
47382;DHT22;33128;51.580;5.170;2023-04-20T13:16:43;17.30;94.00
47382;DHT22;33128;51.580;5.170;2023-04-20T13:19:08;17.90;97.80
47382;DHT22;33128;51.580;5.170;2023-04-20T13:24:00;19.20;86.20
47382;DHT22;33128;51.580;5.170;2023-04-20T13:26:25;19.30;86.30
47382;DHT22;33128;51.580;5.170;2023-04-20T13:28:51;19.10;86.80
47382;DHT22;33128;51.580;5.170;2023-04-20T13:31:18;18.50;90.30
47382;DHT22;33128;51.580;5.170;2023-04-20T13:33:44;17.90;89.10
47382;DHT22;33128;51.580;5.170;2023-04-20T13:36:09;17.30;88.60
47382;DHT22;33128;51.580;5.170;2023-04-20T13:38:35;16.90;90.20
47382;DHT22;33128;51.580;5.170;2023-04-20T13:41:00;16.60;90.10
47382;DHT22;33128;51.580;5.170;2023-04-20T13:43:26;16.40;90.40
47382;DHT22;33128;51.580;5.170;2023-04-20T13:45:52;16.20;90.90
47382;DHT22;33128;51.580;5.170;2023-04-20T13:48:17;16.10;90.00
47382;DHT22;33128;51.580;5.170;2023-04-20T13:50:43;16.20;90.10
47382;DHT22;33128;51.580;5.170;2023-04-20T13:53:08;16.10;90.30
47382;DHT22;33128;51.580;5.170;2023-04-20T13:55:34;16.00;90.00
47382;DHT22;33128;51.580;5.170;2023-04-20T13:57:59;15.60;89.20
47382;DHT22;33128;51.580;5.170;2023-04-20T14:00:25;15.50;90.50
47382;DHT22;33128;51.580;5.170;2023-04-20T14:02:51;15.40;90.60
47382;DHT22;33128;51.580;5.170;2023-04-20T14:05:16;15.30;90.50
47382;DHT22;33128;51.580;5.170;2023-04-20T14:07:42;15.40;90.20
47382;DHT22;33128;51.580;5.170;2023-04-20T14:10:08;15.50;90.10
47382;DHT22;33128;51.580;5.170;2023-04-20T14:12:36;15.60;89.80
47382;DHT22;33128;51.580;5.170;2023-04-20T14:15:02;15.80;89.50
47382;DHT22;33128;51.580;5.170;2023-04-20T14:17:28;15.60;90.00
47382;DHT22;33128;51.580;5.170;2023-04-20T14:19:54;15.50;90.10
47382;DHT22;33128;51.580;5.170;2023-04-20T14:22:20;15.70;91.10
47382;DHT22;33128;51.580;5.170;2023-04-20T14:24:46;15.60;90.30
47382;DHT22;33128;51.580;5.170;2023-04-20T14:27:12;15.50;89.40
47382;DHT22;33128;51.580;5.170;2023-04-20T14:29:38;15.50;90.40
47382;DHT22;33128;51.580;5.170;2023-04-20T14:32:04;15.60;90.30
47382;DHT22;33128;51.580;5.170;2023-04-20T14:34:29;15.50;90.00
47382;DHT22;33128;51.580;5.170;2023-04-20T14:36:55;15.60;90.40
47382;DHT22;33128;51.580;5.170;2023-04-20T14:39:21;15.60;90.10
47382;DHT22;33128;51.580;5.170;2023-04-20T14:41:47;15.60;89.10
47382;DHT22;33128;51.580;5.170;2023-04-20T14:44:13;15.50;90.30
47382;DHT22;33128;51.580;5.170;2023-04-20T14:46:39;15.60;90.00
47382;DHT22;33128;51.580;5.170;2023-04-20T14:49:05;15.70;90.00
47382;DHT22;33128;51.580;5.170;2023-04-20T14:51:31;15.90;89.20
47382;DHT22;33128;51.580;5.170;2023-04-20T14:53:57;16.40;90.40
47382;DHT22;33128;51.580;5.170;2023-04-20T14:56:23;16.60;92.20
47382;DHT22;33128;51.580;5.170;2023-04-20T14:58:48;17.00;90.70
47382;DHT22;33128;51.580;5.170;2023-04-20T15:01:14;17.60;90.20
47382;DHT22;33128;51.580;5.170;2023-04-20T15:03:41;17.70;89.20
47382;DHT22;33128;51.580;5.170;2023-04-20T15:06:13;17.40;89.10
47382;DHT22;33128;51.580;5.170;2023-04-20T15:08:38;17.00;87.50
47382;DHT22;33128;51.580;5.170;2023-04-20T15:11:04;16.50;94.70
47382;DHT22;33128;51.580;5.170;2023-04-20T15:13:30;15.90;90.30
47382;DHT22;33128;51.580;5.170;2023-04-20T15:15:55;15.10;87.40
47382;DHT22;33128;51.580;5.170;2023-04-20T15:18:21;14.60;89.80
47382;DHT22;33128;51.580;5.170;2023-04-20T15:20:50;14.50;90.40
47382;DHT22;33128;51.580;5.170;2023-04-20T15:23:19;14.40;90.30
47382;DHT22;33128;51.580;5.170;2023-04-20T15:25:45;14.30;89.50
47382;DHT22;33128;51.580;5.170;2023-04-20T15:28:11;14.30;90.10
47382;DHT22;33128;51.580;5.170;2023-04-20T15:30:40;14.40;89.10
47382;DHT22;33128;51.580;5.170;2023-04-20T15:33:05;14.20;90.40
47382;DHT22;33128;51.580;5.170;2023-04-20T15:35:31;14.40;90.80
47382;DHT22;33128;51.580;5.170;2023-04-20T15:37:57;14.70;92.90
47382;DHT22;33128;51.580;5.170;2023-04-20T15:40:23;14.60;94.40
47382;DHT22;33128;51.580;5.170;2023-04-20T15:42:48;14.70;94.60